Time;durP1;ratioP1;P1;durP2;ratioP2;P2;SDS_P1;SDS_P2;PMS_P1;PMS_P2;Temp;Humidity;BMP_temperature;BMP_pressure;BME280_temperature;BME280_humidity;BME280_pressure;Samples;Min_cycle;Max_cycle;Signal;HPM_P1;HPM_P2
2022/01/15 00:00:42;;;;;;;4.38;1.85;;;27.20;99.90;;;;;;4970019;28;20058;-79
2022/01/15 00:03:11;;;;;;;3.90;2.30;;;27.40;99.90;;;;;;4962299;28;20035;-80
2022/01/15 00:05:38;;;;;;;3.75;1.80;;;27.70;99.90;;;;;;4972276;28;20029;-79
2022/01/15 00:08:06;;;;;;;3.65;2.60;;;27.90;99.90;;;;;;4977750;28;20399;-80
2022/01/15 00:10:34;;;;;;;2.50;1.95;;;28.10;99.90;;;;;;4978010;28;20473;-75
2022/01/15 00:13:02;;;;;;;2.63;1.55;;;28.10;99.90;;;;;;4982721;28;20050;-74
2022/01/15 00:15:35;;;;;;;4.03;1.95;;;28.00;99.90;;;;;;4966717;28;20077;-78
2022/01/15 00:18:10;;;;;;;3.65;1.95;;;28.00;99.90;;;;;;4971349;28;20070;-73
2022/01/15 00:20:37;;;;;;;3.80;1.90;;;28.00;99.90;;;;;;4973932;28;20027;-78
2022/01/15 00:23:05;;;;;;;8.68;2.08;;;28.00;99.90;;;;;;4969221;28;20035;-75
2022/01/15 00:25:34;;;;;;;4.13;1.65;;;28.00;99.90;;;;;;4974700;28;20377;-76
2022/01/15 00:28:02;;;;;;;2.92;1.48;;;28.20;99.90;;;;;;4974140;28;20019;-75
2022/01/15 00:30:30;;;;;;;2.28;1.38;;;28.50;99.90;;;;;;4970337;28;20042;-77
2022/01/15 00:32:57;;;;;;;3.50;1.33;;;28.40;99.90;;;;;;4968583;28;20062;-75
2022/01/15 00:35:26;;;;;;;1.73;1.23;;;28.40;99.90;;;;;;4964444;28;20030;-78
2022/01/15 00:37:53;;;;;;;4.22;1.90;;;28.60;99.90;;;;;;4975703;28;20101;-75
2022/01/15 00:40:22;;;;;;;2.50;1.30;;;29.00;99.90;;;;;;4970140;28;20037;-76
2022/01/15 00:42:49;;;;;;;3.05;1.48;;;29.10;99.90;;;;;;4968945;28;20478;-77
2022/01/15 00:45:21;;;;;;;3.33;1.50;;;29.40;99.90;;;;;;4971340;28;20039;-74
2022/01/15 00:47:50;;;;;;;4.15;1.27;;;29.70;99.90;;;;;;4972713;28;20101;-76
2022/01/15 00:50:19;;;;;;;5.68;1.60;;;29.70;99.90;;;;;;4974267;28;20054;-76
2022/01/15 00:52:47;;;;;;;3.60;1.48;;;29.80;99.90;;;;;;4975269;28;20081;-77
2022/01/15 00:55:16;;;;;;;4.95;1.85;;;29.80;99.90;;;;;;4967696;28;20117;-76
2022/01/15 00:57:44;;;;;;;2.10;1.50;;;29.80;99.90;;;;;;4971128;28;20031;-75
2022/01/15 01:00:14;;;;;;;4.80;1.50;;;29.90;99.90;;;;;;4974474;28;20473;-77
2022/01/15 01:02:42;;;;;;;2.83;1.73;;;29.90;99.90;;;;;;4973267;28;20046;-76
2022/01/15 01:05:10;;;;;;;4.88;1.60;;;29.90;99.90;;;;;;4968640;28;20015;-77
2022/01/15 01:07:38;;;;;;;1.80;1.23;;;30.00;99.90;;;;;;4967500;28;20041;-77
2022/01/15 01:23:28;;;;;;;;;;;32.00;99.90;;;;;;4968375;28;22690;-74
2022/01/15 01:26:05;;;;;;;2.95;1.95;;;32.60;99.90;;;;;;4972263;28;20295;-76
2022/01/15 01:28:38;;;;;;;3.45;1.48;;;33.40;99.90;;;;;;4971329;28;20118;-77
2022/01/15 01:31:16;;;;;;;4.65;1.83;;;33.70;99.20;;;;;;4968511;28;20433;-74
2022/01/15 01:33:48;;;;;;;3.08;1.67;;;34.30;98.30;;;;;;4962181;28;20169;-74
2022/01/15 01:38:51;;;;;;;2.33;1.60;;;34.40;97.70;;;;;;4965587;28;20089;-74
2022/01/15 01:41:21;;;;;;;4.63;1.67;;;34.20;97.50;;;;;;4972808;28;20125;-73
2022/01/15 01:44:00;;;;;;;2.92;1.42;;;34.20;98.30;;;;;;4969673;28;20034;-75
2022/01/15 01:48:58;;;;;;;5.10;1.73;;;35.10;95.30;;;;;;4967094;28;20101;-77
2022/01/15 01:51:33;;;;;;;2.65;1.63;;;34.70;96.10;;;;;;4966557;28;20145;-75
2022/01/15 01:54:03;;;;;;;2.53;1.40;;;34.50;96.70;;;;;;4961492;28;20047;-77
2022/01/15 01:56:31;;;;;;;3.65;1.67;;;34.40;96.40;;;;;;4962710;28;20039;-76
2022/01/15 01:58:59;;;;;;;2.22;1.33;;;34.60;95.60;;;;;;4964719;28;20124;-75
2022/01/15 02:01:27;;;;;;;1.27;1.17;;;34.40;95.40;;;;;;4965366;28;20023;-74
2022/01/15 02:03:55;;;;;;;2.85;1.17;;;34.60;94.90;;;;;;4969936;28;20062;-75
2022/01/15 02:06:22;;;;;;;3.67;1.58;;;34.60;94.20;;;;;;4968494;28;20034;-76
2022/01/15 02:08:51;;;;;;;2.95;1.40;;;34.50;93.90;;;;;;4969397;28;20371;-77
2022/01/15 02:11:19;;;;;;;2.63;1.13;;;34.90;95.80;;;;;;4961011;28;20034;-76
2022/01/15 02:13:47;;;;;;;4.47;0.95;;;35.40;95.10;;;;;;4973226;28;20375;-77
2022/01/15 02:16:16;;;;;;;1.20;0.75;;;34.90;92.00;;;;;;4971753;28;20089;-77
2022/01/15 02:18:43;;;;;;;3.15;1.20;;;34.40;91.90;;;;;;4964380;28;20090;-75
2022/01/15 02:23:44;;;;;;;2.38;1.05;;;33.00;92.90;;;;;;4967493;28;20473;-77
2022/01/15 02:26:16;;;;;;;5.03;1.38;;;32.20;93.60;;;;;;4959555;28;20085;-76
2022/01/15 02:28:59;;;;;;;2.65;1.40;;;31.80;95.60;;;;;;4964254;28;20114;-74
2022/01/15 02:31:29;;;;;;;4.78;1.77;;;31.30;96.10;;;;;;4959943;28;20055;-77
2022/01/15 02:33:59;;;;;;;1.60;1.27;;;30.70;98.40;;;;;;4964133;28;20371;-72
2022/01/15 02:36:33;;;;;;;2.97;1.85;;;30.20;99.90;;;;;;4968811;28;20045;-72
2022/01/15 02:39:01;;;;;;;1.77;1.20;;;29.80;99.90;;;;;;4964948;28;20065;-76
2022/01/15 02:41:34;;;;;;;5.07;1.25;;;29.60;99.90;;;;;;4967161;28;20031;-76
2022/01/15 02:44:06;;;;;;;2.78;1.60;;;29.40;99.90;;;;;;4965253;28;20037;-75
2022/01/15 02:49:04;;;;;;;3.97;1.30;;;29.50;99.90;;;;;;4959900;28;20114;-74
2022/01/15 02:51:35;;;;;;;2.50;1.27;;;29.70;99.90;;;;;;4967993;28;20033;-80
2022/01/15 02:54:03;;;;;;;2.15;1.52;;;30.00;99.90;;;;;;4965589;28;20402;-81
2022/01/15 02:56:36;;;;;;;4.18;1.55;;;30.30;99.90;;;;;;4967646;28;20461;-81
2022/01/15 02:59:06;;;;;;;2.03;1.63;;;30.40;99.90;;;;;;4962244;28;20031;-75
2022/01/15 03:01:34;;;;;;;7.45;1.42;;;30.30;99.90;;;;;;4970517;28;20101;-76
2022/01/15 03:04:03;;;;;;;4.43;1.98;;;30.40;99.90;;;;;;4965877;28;20489;-77
2022/01/15 03:06:30;;;;;;;2.75;1.63;;;30.40;99.90;;;;;;4986248;28;20039;-76
2022/01/15 03:08:57;;;;;;;3.58;1.63;;;30.50;99.90;;;;;;4968789;28;20550;-78
2022/01/15 03:11:27;;;;;;;2.13;1.50;;;30.50;99.90;;;;;;4964439;28;20085;-79
2022/01/15 03:13:54;;;;;;;2.38;1.42;;;30.60;99.90;;;;;;4962770;28;20043;-77
2022/01/15 03:16:22;;;;;;;2.92;1.38;;;30.80;99.90;;;;;;4966724;28;20117;-76
2022/01/15 03:18:50;;;;;;;3.05;1.38;;;30.90;99.90;;;;;;4964953;28;20043;-76
2022/01/15 03:21:19;;;;;;;1.40;1.05;;;31.10;99.90;;;;;;4961644;28;20054;-76
2022/01/15 03:23:47;;;;;;;1.88;1.33;;;31.60;99.30;;;;;;4995269;28;20554;-74
2022/01/15 03:26:15;;;;;;;1.67;1.15;;;32.30;98.00;;;;;;4965005;28;20058;-74
2022/01/15 03:28:43;;;;;;;2.50;1.88;;;32.50;98.30;;;;;;4967210;28;20105;-74
2022/01/15 03:31:11;;;;;;;2.55;0.88;;;32.80;98.40;;;;;;4970218;28;20041;-75
2022/01/15 03:33:38;;;;;;;3.50;0.98;;;33.20;97.30;;;;;;4968688;28;20106;-73
2022/01/15 03:36:06;;;;;;;1.65;0.95;;;33.40;97.00;;;;;;4964868;28;20456;-74
2022/01/15 03:38:33;;;;;;;1.60;1.35;;;33.60;97.00;;;;;;4963829;28;20027;-75
2022/01/15 03:41:01;;;;;;;3.00;1.75;;;33.50;96.30;;;;;;4966292;28;20043;-76
2022/01/15 03:43:29;;;;;;;3.90;1.55;;;33.50;95.50;;;;;;4968148;28;20101;-74
2022/01/15 03:45:56;;;;;;;2.28;1.00;;;33.10;96.30;;;;;;4968733;28;20042;-74
2022/01/15 03:48:25;;;;;;;3.10;0.85;;;32.80;96.70;;;;;;4968189;28;20031;-74
2022/01/15 03:50:52;;;;;;;1.95;0.70;;;32.40;95.70;;;;;;4963998;28;20046;-73
2022/01/15 03:53:21;;;;;;;1.58;0.70;;;32.20;95.80;;;;;;4971915;28;20031;-74
2022/01/15 03:55:49;;;;;;;1.55;0.95;;;32.50;95.40;;;;;;4971523;28;20035;-74
2022/01/15 03:58:17;;;;;;;5.07;1.60;;;32.90;95.20;;;;;;4969083;28;20519;-74
2022/01/15 04:00:45;;;;;;;0.93;0.70;;;33.20;95.30;;;;;;4975584;28;20022;-75
2022/01/15 04:03:12;;;;;;;1.05;0.60;;;33.30;95.40;;;;;;4970871;28;20056;-76
2022/01/15 04:05:40;;;;;;;3.60;0.93;;;33.20;94.80;;;;;;4972816;28;20045;-77
2022/01/15 04:08:08;;;;;;;3.03;1.10;;;33.50;94.70;;;;;;4971056;28;20132;-77
2022/01/15 04:10:36;;;;;;;1.35;0.68;;;33.70;94.80;;;;;;4966700;28;20085;-77
2022/01/15 04:13:03;;;;;;;1.65;1.17;;;33.60;93.00;;;;;;4972946;28;20148;-74
2022/01/15 04:15:31;;;;;;;1.17;0.68;;;33.30;94.40;;;;;;4971703;28;20109;-74
2022/01/15 04:17:59;;;;;;;0.88;0.60;;;33.40;93.50;;;;;;4986319;28;20034;-77
2022/01/15 04:20:28;;;;;;;2.03;0.43;;;33.40;93.10;;;;;;4983752;28;20058;-78
2022/01/15 04:22:55;;;;;;;2.97;0.60;;;33.70;91.70;;;;;;4973578;28;20030;-76
2022/01/15 04:25:23;;;;;;;4.20;0.70;;;33.80;91.20;;;;;;4972605;28;20065;-77
2022/01/15 04:27:50;;;;;;;3.90;1.15;;;33.90;91.30;;;;;;4989786;28;20033;-78
2022/01/15 04:30:21;;;;;;;3.88;0.90;;;34.30;93.30;;;;;;4972795;28;20039;-78
2022/01/15 04:32:48;;;;;;;2.50;0.75;;;34.50;91.50;;;;;;4962820;28;20042;-76
2022/01/15 04:35:16;;;;;;;2.83;0.50;;;34.50;91.20;;;;;;4971240;28;20027;-76
2022/01/15 04:37:47;;;;;;;4.15;0.40;;;34.40;91.60;;;;;;4965150;28;20133;-78
2022/01/15 04:40:16;;;;;;;4.88;0.93;;;34.10;90.60;;;;;;4972772;28;20027;-77
2022/01/15 04:42:44;;;;;;;1.17;0.40;;;34.10;91.00;;;;;;4982207;28;20037;-77
2022/01/15 04:45:12;;;;;;;3.85;1.48;;;34.10;90.70;;;;;;4976057;28;20038;-77
2022/01/15 04:47:40;;;;;;;3.00;0.40;;;34.30;90.80;;;;;;4985979;28;20106;-79
2022/01/15 04:50:13;;;;;;;3.22;0.40;;;34.20;90.90;;;;;;4972884;28;20145;-78
2022/01/15 04:52:42;;;;;;;3.05;0.30;;;34.30;88.20;;;;;;4974171;28;20050;-76
2022/01/15 04:55:11;;;;;;;4.00;0.80;;;34.40;88.70;;;;;;4968051;28;20023;-78
2022/01/15 04:57:41;;;;;;;3.15;0.70;;;34.40;87.80;;;;;;4972664;28;20374;-81
2022/01/15 05:00:16;;;;;;;1.75;0.50;;;34.40;87.10;;;;;;4972468;28;20080;-77
2022/01/15 05:02:42;;;;;;;;;;;34.10;87.10;;;;;;4966605;28;20030;-83
2022/01/15 05:05:10;;;;;;;1.63;0.30;;;34.00;87.80;;;;;;4966773;28;19913;-77
2022/01/15 05:07:38;;;;;;;2.72;0.50;;;33.80;88.80;;;;;;4973397;28;20035;-80
2022/01/15 05:10:07;;;;;;;1.95;0.60;;;33.70;88.00;;;;;;4967925;28;20062;-77
2022/01/15 05:12:43;;;;;;;3.50;0.60;;;33.40;90.00;;;;;;4969912;28;20430;-80
2022/01/15 05:15:12;;;;;;;3.60;0.75;;;33.10;90.70;;;;;;4968646;28;20031;-79
2022/01/15 05:17:40;;;;;;;2.63;0.80;;;32.80;90.90;;;;;;4973813;28;20035;-78
2022/01/15 05:20:09;;;;;;;2.15;0.60;;;32.50;91.60;;;;;;4971699;28;20105;-79
2022/01/15 05:22:36;;;;;;;3.42;0.82;;;32.30;91.50;;;;;;4974385;28;20026;-77
2022/01/15 05:25:08;;;;;;;1.23;0.40;;;32.20;91.20;;;;;;4971556;28;20079;-77
2022/01/15 05:27:36;;;;;;;1.90;0.40;;;32.00;91.50;;;;;;4979771;28;20481;-79
2022/01/15 05:30:05;;;;;;;2.83;0.60;;;32.10;92.20;;;;;;4971949;28;20030;-76
2022/01/15 05:32:34;;;;;;;2.00;0.28;;;32.00;91.50;;;;;;4980984;28;20038;-80
2022/01/15 05:35:02;;;;;;;0.82;0.47;;;32.00;91.20;;;;;;4968584;28;20026;-78
2022/01/15 05:37:29;;;;;;;1.95;0.60;;;31.90;91.50;;;;;;4976163;28;20027;-77
2022/01/15 05:39:57;;;;;;;2.40;0.68;;;31.80;91.90;;;;;;4971254;28;20082;-79
2022/01/15 05:42:24;;;;;;;2.53;0.65;;;31.80;92.10;;;;;;4972333;28;20484;-79
2022/01/15 05:44:52;;;;;;;2.10;0.52;;;31.80;92.20;;;;;;4970419;28;20080;-76
2022/01/15 05:47:19;;;;;;;3.08;0.60;;;32.10;92.10;;;;;;4974592;28;20018;-76
2022/01/15 05:49:47;;;;;;;0.75;0.38;;;32.50;92.20;;;;;;4971150;28;20424;-76
2022/01/15 05:52:14;;;;;;;2.30;1.48;;;32.80;91.70;;;;;;4977226;28;20038;-78
2022/01/15 05:54:41;;;;;;;0.75;0.38;;;32.90;91.30;;;;;;4971471;28;20037;-79
2022/01/15 05:57:09;;;;;;;0.98;0.43;;;33.10;90.90;;;;;;4973220;28;20026;-77
2022/01/15 05:59:36;;;;;;;0.45;0.20;;;33.40;90.90;;;;;;4972694;28;20031;-77
2022/01/15 06:02:04;;;;;;;0.55;0.25;;;33.70;91.10;;;;;;4976320;28;20045;-78
2022/01/15 06:04:31;;;;;;;0.75;0.40;;;33.70;91.10;;;;;;4970736;28;20058;-77
2022/01/15 06:06:58;;;;;;;2.47;0.65;;;33.60;90.90;;;;;;4974382;28;20026;-78
2022/01/15 06:09:26;;;;;;;2.22;0.50;;;33.40;90.90;;;;;;4969621;28;20018;-76
2022/01/15 06:11:56;;;;;;;2.55;1.13;;;33.20;91.10;;;;;;4971021;28;20623;-78
2022/01/15 06:14:23;;;;;;;2.47;0.40;;;32.80;91.50;;;;;;4965072;28;20114;-79
2022/01/15 06:16:51;;;;;;;0.73;0.65;;;32.60;91.60;;;;;;4968174;28;20026;-78
2022/01/15 06:19:18;;;;;;;6.32;0.85;;;32.40;91.90;;;;;;4968268;28;20026;-76
2022/01/15 06:21:45;;;;;;;1.77;0.50;;;32.30;92.20;;;;;;4971005;28;20559;-77
2022/01/15 06:24:13;;;;;;;3.47;0.82;;;32.30;92.30;;;;;;4968907;28;20414;-77
2022/01/15 06:26:40;;;;;;;3.78;0.90;;;32.30;92.10;;;;;;4969716;28;20043;-77
2022/01/15 06:29:08;;;;;;;1.48;0.40;;;32.20;92.30;;;;;;4976826;28;20025;-77
2022/01/15 06:31:36;;;;;;;3.13;0.60;;;32.30;92.00;;;;;;4974438;28;20023;-76
2022/01/15 06:34:03;;;;;;;4.10;0.52;;;32.30;92.10;;;;;;4974197;28;20034;-77
2022/01/15 06:36:30;;;;;;;3.45;0.70;;;32.40;92.60;;;;;;4976064;28;20067;-77
2022/01/15 06:38:58;;;;;;;1.42;0.70;;;32.60;92.20;;;;;;4966717;28;20042;-76
2022/01/15 06:41:25;;;;;;;1.23;0.40;;;33.00;91.70;;;;;;4979921;28;20031;-76
2022/01/15 06:43:53;;;;;;;2.25;0.47;;;33.30;92.00;;;;;;4969353;28;20046;-76
2022/01/15 06:46:20;;;;;;;3.10;0.60;;;33.70;92.20;;;;;;4982730;28;20038;-78
2022/01/15 06:48:48;;;;;;;3.72;1.27;;;33.70;91.80;;;;;;4968539;28;20026;-76
2022/01/15 06:51:16;;;;;;;3.08;1.00;;;33.80;91.90;;;;;;4977918;28;20029;-77
2022/01/15 06:53:43;;;;;;;3.40;1.13;;;33.80;92.80;;;;;;4971488;28;20042;-75
2022/01/15 06:56:10;;;;;;;2.58;0.90;;;33.90;92.10;;;;;;4970227;28;20031;-78
2022/01/15 06:58:38;;;;;;;4.35;0.63;;;33.80;91.90;;;;;;4968390;28;20114;-77
2022/01/15 07:01:05;;;;;;;2.25;0.90;;;33.60;91.90;;;;;;4970704;28;20029;-76
2022/01/15 07:03:33;;;;;;;3.28;1.23;;;33.60;92.40;;;;;;4967435;28;20023;-77
2022/01/15 07:06:00;;;;;;;2.88;1.10;;;33.40;92.40;;;;;;4970836;28;20026;-76
2022/01/15 07:08:27;;;;;;;3.13;0.90;;;33.30;92.40;;;;;;4966289;28;20034;-81
2022/01/15 07:10:55;;;;;;;3.08;1.05;;;33.10;93.10;;;;;;4970392;28;20031;-78
2022/01/15 07:13:22;;;;;;;3.08;1.00;;;32.90;93.70;;;;;;4969375;28;20486;-77
2022/01/15 07:15:50;;;;;;;4.32;1.55;;;32.70;93.80;;;;;;4971214;28;20049;-76
2022/01/15 07:18:17;;;;;;;3.15;1.38;;;32.60;94.40;;;;;;4968041;28;20023;-77
2022/01/15 07:20:45;;;;;;;7.10;1.67;;;32.50;94.80;;;;;;4969041;28;20122;-82
2022/01/15 07:23:13;;;;;;;1.73;0.98;;;32.50;94.90;;;;;;4968620;28;23116;-76
2022/01/15 07:25:41;;;;;;;3.00;1.33;;;32.40;94.30;;;;;;4970606;28;20066;-78
2022/01/15 07:28:08;;;;;;;7.63;1.67;;;32.00;95.40;;;;;;4977819;28;20018;-76
2022/01/15 07:30:35;;;;;;;2.60;1.38;;;31.80;95.70;;;;;;4969196;28;20035;-77
2022/01/15 07:33:03;;;;;;;5.65;1.58;;;31.50;95.80;;;;;;4969327;28;20038;-77
2022/01/15 07:35:31;;;;;;;7.47;1.02;;;31.20;96.30;;;;;;4970052;28;20027;-75
2022/01/15 07:37:59;;;;;;;3.30;0.88;;;31.10;96.30;;;;;;4966464;28;20027;-76
2022/01/15 07:40:26;;;;;;;4.22;1.27;;;30.80;96.50;;;;;;4969368;28;20094;-77
2022/01/15 07:42:53;;;;;;;2.88;1.10;;;30.50;96.60;;;;;;4972834;28;20099;-75
2022/01/15 07:45:21;;;;;;;4.60;1.10;;;30.30;96.70;;;;;;4966263;28;20041;-76
2022/01/15 07:47:48;;;;;;;2.17;0.98;;;30.00;97.20;;;;;;4969014;28;20542;-76
2022/01/15 07:50:26;;;;;;;6.50;2.17;;;29.80;96.90;;;;;;4971235;28;20027;-75
2022/01/15 07:52:54;;;;;;;1.88;0.85;;;29.70;97.20;;;;;;4973012;28;20102;-75
2022/01/15 07:55:23;;;;;;;1.65;0.95;;;29.60;96.90;;;;;;4969964;28;20130;-76
2022/01/15 07:57:51;;;;;;;6.15;1.00;;;29.50;97.20;;;;;;4964936;28;20438;-75
2022/01/15 08:00:19;;;;;;;4.38;0.80;;;29.40;96.80;;;;;;4970620;28;20026;-75
2022/01/15 08:02:47;;;;;;;2.80;0.88;;;29.40;96.90;;;;;;4960058;28;20389;-76
2022/01/15 08:05:14;;;;;;;1.77;0.63;;;29.40;96.90;;;;;;4972363;28;20026;-76
2022/01/15 08:07:42;;;;;;;3.60;1.20;;;29.30;96.80;;;;;;4971546;28;20485;-75
2022/01/15 08:10:10;;;;;;;6.97;0.70;;;29.20;97.10;;;;;;4972500;28;20022;-75
2022/01/15 08:12:50;;;;;;;5.32;1.10;;;29.10;97.20;;;;;;4979010;28;20446;-76
2022/01/15 08:15:19;;;;;;;3.53;0.93;;;29.00;97.40;;;;;;4973445;28;20083;-75
2022/01/15 08:17:46;;;;;;;4.30;1.02;;;28.80;97.80;;;;;;4973683;28;20026;-75
2022/01/15 08:20:14;;;;;;;1.75;0.90;;;28.80;97.70;;;;;;4971107;28;20101;-75
2022/01/15 08:22:42;;;;;;;3.28;0.90;;;28.60;97.70;;;;;;4972404;28;20037;-77
2022/01/15 08:25:11;;;;;;;2.20;0.60;;;28.50;97.80;;;;;;4971704;28;20486;-75
2022/01/15 08:27:38;;;;;;;3.33;1.17;;;28.50;98.00;;;;;;4974548;28;20073;-77
2022/01/15 08:30:07;;;;;;;2.90;0.80;;;28.40;98.10;;;;;;4973213;28;20042;-75
2022/01/15 08:32:38;;;;;;;1.05;0.52;;;28.40;98.40;;;;;;4976686;28;20060;-78
2022/01/15 08:35:06;;;;;;;3.78;0.82;;;28.30;98.50;;;;;;4973507;28;20106;-78
2022/01/15 08:37:37;;;;;;;4.75;1.15;;;28.20;98.80;;;;;;4971118;28;20049;-77
2022/01/15 08:40:09;;;;;;;2.45;0.75;;;28.10;99.00;;;;;;4972238;28;20047;-74
2022/01/15 08:42:37;;;;;;;1.58;0.80;;;28.00;99.40;;;;;;4973693;28;20018;-74
2022/01/15 08:45:07;;;;;;;4.10;0.90;;;27.90;99.50;;;;;;4971807;28;20043;-75
2022/01/15 08:47:34;;;;;;;4.38;1.10;;;27.80;99.60;;;;;;4977670;28;20034;-74
2022/01/15 08:50:02;;;;;;;5.15;1.33;;;27.80;99.90;;;;;;4970964;28;20027;-74
2022/01/15 08:52:30;;;;;;;5.80;1.27;;;27.70;99.90;;;;;;4975802;28;20034;-74
2022/01/15 08:55:00;;;;;;;5.78;1.60;;;27.70;99.90;;;;;;4974149;28;20035;-75
2022/01/15 08:57:27;;;;;;;4.65;1.30;;;27.60;99.90;;;;;;4967735;28;20033;-77
2022/01/15 08:59:54;;;;;;;2.45;1.10;;;27.60;99.90;;;;;;4973243;28;20023;-75
2022/01/15 09:02:21;;;;;;;3.88;1.38;;;27.50;99.90;;;;;;4971849;28;20027;-76
2022/01/15 09:04:49;;;;;;;5.60;2.05;;;27.50;99.90;;;;;;4973452;28;20468;-78
2022/01/15 09:07:16;;;;;;;4.40;0.90;;;27.40;99.90;;;;;;4980566;28;20030;-75
2022/01/15 09:09:44;;;;;;;6.70;1.05;;;27.30;99.90;;;;;;4971178;28;20089;-75
2022/01/15 09:12:11;;;;;;;5.95;0.80;;;27.30;99.90;;;;;;4972572;28;20038;-74
2022/01/15 09:14:40;;;;;;;1.58;1.20;;;27.30;99.90;;;;;;4969405;28;20481;-75
2022/01/15 09:17:07;;;;;;;3.60;0.95;;;27.30;99.90;;;;;;4973999;28;20482;-73
2022/01/15 09:19:37;;;;;;;2.40;1.13;;;27.20;99.90;;;;;;4962464;28;20197;-74
2022/01/15 09:22:08;;;;;;;3.00;1.27;;;27.10;99.90;;;;;;4964722;28;20038;-74
2022/01/15 09:24:35;;;;;;;2.88;1.88;;;27.10;99.90;;;;;;4967313;28;20086;-75
2022/01/15 09:30:12;;;;;;;5.57;0.82;;;27.00;99.90;;;;;;4966272;28;20039;-77
2022/01/15 09:32:36;;;;;;;3.22;1.23;;;27.00;99.90;;;;;;4971316;28;20113;-75
2022/01/15 09:35:04;;;;;;;1.50;1.02;;;27.00;99.90;;;;;;4965008;28;20031;-74
2022/01/15 09:37:31;;;;;;;2.90;1.33;;;27.00;99.90;;;;;;4970846;28;20035;-74
2022/01/15 09:39:59;;;;;;;4.95;1.48;;;27.00;99.90;;;;;;4968104;28;20029;-75
2022/01/15 09:42:27;;;;;;;4.22;1.20;;;26.90;99.90;;;;;;4968502;28;20081;-75
2022/01/15 09:44:55;;;;;;;2.78;1.33;;;26.90;99.90;;;;;;4968717;28;20023;-74
2022/01/15 09:47:23;;;;;;;6.95;2.45;;;26.80;99.90;;;;;;4969895;28;20144;-75
2022/01/15 09:49:53;;;;;;;4.90;2.13;;;26.70;99.90;;;;;;4965956;28;20027;-77
2022/01/15 09:52:21;;;;;;;8.45;1.83;;;26.60;99.90;;;;;;4966489;28;20051;-76
2022/01/15 09:54:50;;;;;;;5.22;1.65;;;26.50;99.90;;;;;;4968981;28;20140;-75
2022/01/15 09:57:18;;;;;;;5.72;1.40;;;26.20;99.90;;;;;;4972029;28;20019;-76
2022/01/15 09:59:46;;;;;;;8.07;1.90;;;25.90;99.90;;;;;;4966314;28;20434;-76
2022/01/15 10:02:14;;;;;;;4.82;2.45;;;25.60;99.90;;;;;;4970181;28;20035;-76
2022/01/15 10:04:41;;;;;;;6.93;1.83;;;25.30;99.90;;;;;;4970165;28;20034;-75
2022/01/15 10:07:22;;;;;;;6.68;2.03;;;25.00;99.90;;;;;;4969272;28;20030;-77
2022/01/15 10:09:50;;;;;;;9.80;2.42;;;24.70;99.90;;;;;;4969605;28;20035;-73
2022/01/15 10:12:26;;;;;;;7.55;2.35;;;24.50;99.90;;;;;;4969381;28;20530;-76
2022/01/15 10:14:57;;;;;;;4.53;2.35;;;24.40;99.90;;;;;;4969975;28;20038;-78
2022/01/15 10:17:35;;;;;;;5.75;1.77;;;24.30;99.90;;;;;;4967000;28;20045;-76
2022/01/15 10:20:09;;;;;;;5.80;1.92;;;24.20;99.90;;;;;;4966707;28;20051;-74
2022/01/15 10:22:43;;;;;;;4.45;2.20;;;24.20;99.90;;;;;;4970681;28;20019;-75
2022/01/15 10:25:20;;;;;;;4.22;2.03;;;24.10;99.90;;;;;;4967946;28;20038;-74
2022/01/15 10:27:55;;;;;;;7.25;2.85;;;24.10;99.90;;;;;;4970385;28;20562;-74
2022/01/15 10:30:28;;;;;;;4.60;1.85;;;24.10;99.90;;;;;;4969374;28;20037;-75
2022/01/15 10:33:08;;;;;;;2.85;2.03;;;24.20;99.90;;;;;;4968675;28;20363;-75
2022/01/15 10:35:44;;;;;;;3.00;1.75;;;24.20;99.90;;;;;;4963815;28;20019;-76
2022/01/15 10:38:17;;;;;;;5.15;2.78;;;24.30;99.90;;;;;;4970454;28;20056;-74
2022/01/15 10:40:47;;;;;;;5.88;1.95;;;24.20;99.90;;;;;;4968984;28;20050;-73
2022/01/15 10:43:18;;;;;;;4.30;2.00;;;24.30;99.90;;;;;;4970187;28;20052;-75
2022/01/15 10:45:51;;;;;;;7.22;3.33;;;24.20;99.90;;;;;;4963487;28;20030;-77
2022/01/15 10:48:26;;;;;;;12.15;2.97;;;24.20;99.90;;;;;;4969978;28;20372;-73
2022/01/15 10:51:01;;;;;;;9.55;2.65;;;24.10;99.90;;;;;;4973018;28;20469;-74
2022/01/15 10:53:41;;;;;;;6.68;1.90;;;24.10;99.90;;;;;;4971755;28;20126;-78
2022/01/15 10:56:11;;;;;;;6.68;1.92;;;24.00;99.90;;;;;;4963979;28;20474;-74
2022/01/15 10:58:44;;;;;;;3.33;1.25;;;23.90;99.90;;;;;;4966687;28;20030;-75
2022/01/15 11:01:26;;;;;;;3.83;2.00;;;23.90;99.90;;;;;;4970801;28;20169;-82
2022/01/15 11:03:53;;;;;;;4.43;1.60;;;23.80;99.90;;;;;;4970675;28;20077;-82
2022/01/15 11:06:39;;;;;;;6.93;1.67;;;23.80;99.90;;;;;;4971722;28;20026;-81
2022/01/15 11:09:07;;;;;;;5.47;2.10;;;23.80;99.90;;;;;;4965831;28;20034;-77
2022/01/15 11:11:34;;;;;;;3.88;1.98;;;23.80;99.90;;;;;;4973948;28;20572;-76
2022/01/15 11:14:02;;;;;;;4.68;1.67;;;23.80;99.90;;;;;;4977336;28;20134;-84
2022/01/15 11:16:29;;;;;;;4.57;2.15;;;23.80;99.90;;;;;;4977512;28;20019;-80
2022/01/15 11:18:57;;;;;;;2.72;1.95;;;23.80;99.90;;;;;;4970852;28;20580;-81
2022/01/15 11:21:27;;;;;;;2.15;1.75;;;23.80;99.90;;;;;;4970675;28;20029;-81
2022/01/15 11:23:56;;;;;;;4.82;1.63;;;23.70;99.90;;;;;;4970870;28;20042;-81
2022/01/15 11:26:27;;;;;;;4.75;1.70;;;23.80;99.90;;;;;;4970647;28;20039;-81
2022/01/15 11:28:55;;;;;;;5.35;1.80;;;23.70;99.90;;;;;;4970534;28;20019;-79
2022/01/15 11:31:31;;;;;;;10.00;2.17;;;23.70;99.90;;;;;;4971569;28;20224;-76
2022/01/15 11:34:01;;;;;;;3.25;2.03;;;23.70;99.90;;;;;;4970981;28;20040;-79
2022/01/15 11:36:34;;;;;;;4.88;2.50;;;23.70;99.90;;;;;;4995781;28;20028;-80
2022/01/15 11:39:04;;;;;;;3.33;2.08;;;23.70;99.90;;;;;;4963451;28;20486;-77
2022/01/15 11:41:31;;;;;;;5.05;2.50;;;23.70;99.90;;;;;;4970225;28;20038;-78
2022/01/15 11:44:08;;;;;;;7.93;2.25;;;23.60;99.90;;;;;;4967585;28;20482;-79
2022/01/15 11:46:41;;;;;;;3.90;2.10;;;23.60;99.90;;;;;;4976329;28;20034;-82
2022/01/15 11:49:27;;;;;;;2.45;2.05;;;23.60;99.90;;;;;;4978683;28;20031;-81
2022/01/15 11:52:06;;;;;;;5.85;2.13;;;23.60;99.90;;;;;;4963437;28;20042;-79
2022/01/15 11:54:34;;;;;;;5.35;2.50;;;23.50;99.90;;;;;;4968951;28;20031;-80
2022/01/15 11:57:03;;;;;;;7.20;2.88;;;23.50;99.90;;;;;;4968512;28;20023;-78
2022/01/15 11:59:33;;;;;;;6.80;2.90;;;23.40;99.90;;;;;;4969016;28;20377;-79
2022/01/15 12:02:24;;;;;;;5.20;2.72;;;23.40;99.90;;;;;;4971933;28;20417;-78
2022/01/15 12:04:51;;;;;;;7.13;2.67;;;23.40;99.90;;;;;;4975293;28;20359;-79
2022/01/15 12:07:23;;;;;;;4.00;2.50;;;23.30;99.90;;;;;;4974039;28;20023;-79
2022/01/15 12:09:52;;;;;;;5.43;2.20;;;23.30;99.90;;;;;;4971809;28;20486;-78
2022/01/15 12:12:20;;;;;;;4.70;1.88;;;23.40;99.90;;;;;;4972951;28;20046;-76
2022/01/15 12:14:49;;;;;;;7.85;2.22;;;23.40;99.90;;;;;;4975353;28;20023;-79
2022/01/15 12:17:25;;;;;;;4.60;2.42;;;23.30;99.90;;;;;;4975277;28;20033;-78
2022/01/15 12:19:54;;;;;;;6.22;2.78;;;23.30;99.90;;;;;;4974315;28;20066;-79
2022/01/15 12:22:36;;;;;;;5.28;2.50;;;23.30;99.90;;;;;;4976354;28;20169;-80
2022/01/15 12:25:12;;;;;;;4.32;2.33;;;23.30;99.90;;;;;;4972278;28;20054;-78
2022/01/15 12:27:40;;;;;;;8.15;2.28;;;23.30;99.90;;;;;;4974602;28;20046;-72
2022/01/15 12:30:13;;;;;;;3.97;2.10;;;23.30;99.90;;;;;;4968657;28;20023;-74
2022/01/15 12:32:47;;;;;;;4.65;2.42;;;23.30;99.90;;;;;;4968783;28;20039;-76
2022/01/15 12:35:24;;;;;;;5.97;3.00;;;23.20;99.90;;;;;;4973614;28;20035;-73
2022/01/15 12:38:15;;;;;;;5.55;2.03;;;23.20;99.90;;;;;;4971623;28;20509;-74
2022/01/15 12:40:45;;;;;;;5.20;2.08;;;23.20;99.90;;;;;;4964954;28;20471;-72
2022/01/15 12:43:22;;;;;;;5.45;2.78;;;23.20;99.90;;;;;;4978293;28;20027;-72
2022/01/15 12:45:57;;;;;;;5.85;2.13;;;23.20;99.90;;;;;;4964315;28;20023;-73
2022/01/15 12:48:30;;;;;;;3.05;1.92;;;23.10;99.90;;;;;;4966320;28;20038;-78
2022/01/15 12:51:04;;;;;;;3.55;1.40;;;23.10;99.90;;;;;;4967983;28;20031;-75
2022/01/15 12:53:37;;;;;;;4.43;1.75;;;23.10;99.90;;;;;;4973405;28;20058;-78
2022/01/15 12:56:15;;;;;;;3.40;2.00;;;23.00;99.90;;;;;;4959278;28;20466;-74
2022/01/15 12:58:43;;;;;;;5.55;2.45;;;23.00;99.90;;;;;;4972848;28;20122;-73
2022/01/15 13:01:12;;;;;;;7.85;2.80;;;23.00;99.90;;;;;;4980447;28;20354;-77
2022/01/15 13:03:41;;;;;;;3.58;1.92;;;23.00;99.90;;;;;;4974048;28;20092;-74
2022/01/15 13:06:09;;;;;;;5.18;2.10;;;23.00;99.90;;;;;;4972002;28;20474;-73
2022/01/15 13:08:42;;;;;;;3.45;1.90;;;23.00;99.90;;;;;;4972522;28;20549;-74
2022/01/15 13:13:47;;;;;;;3.55;2.40;;;22.90;99.90;;;;;;4973088;28;20039;-74
2022/01/15 13:16:16;;;;;;;4.68;2.65;;;22.90;99.90;;;;;;4972956;28;20565;-75
2022/01/15 13:18:49;;;;;;;6.82;2.15;;;22.80;99.90;;;;;;4981468;28;20610;-74
2022/01/15 13:21:22;;;;;;;4.50;2.17;;;22.80;99.90;;;;;;4972334;28;20074;-74
2022/01/15 13:23:57;;;;;;;4.90;3.38;;;22.70;99.90;;;;;;4972706;28;20050;-72
2022/01/15 13:26:49;;;;;;;5.13;3.23;;;22.80;99.90;;;;;;4973024;28;20118;-72
2022/01/15 13:29:19;;;;;;;4.72;3.10;;;22.70;99.90;;;;;;4970216;28;20054;-73